Terminal Aerodrome Forecast
Issued by NWS

Home | Current Version | Previous Version | Text Only | Print | Product List | Glossary On
Versions: 1 2 3 4 5 6 7 8 9 10 11 12
107
FTUS45 KABQ 072336
TAFAEG
TAF
KAEG 072336Z 0800/0824 31014KT P6SM SKC
     FM080200 32007KT P6SM SKC=

USA.gov is the U.S. government's official web portal to all federal, state and local government web resources and services.